Latest Weather Observations for Ballarat

IDV60801

Issued at 9:02 pm EDT Friday 26 February 2021 (issued every 10 minutes, with the page automatically refreshed every 10 minutes)

About weather observations | Map of weather stations | Latest weather observations for VIC | Other Formats
Station Details ID: 089002 Name: BALLARAT AERODROME Lat: -37.51 Lon: 143.79 Height: 435.2 m
Data from the previous 72 hours. | See also: Recent months at Ballarat
Date/Time
EDT
Temp
°C
App
Temp
°C
Dew
Point
°C
Rel
Hum
%
Delta-T
°C
Wind Press
QNH
hPa
Press
MSL
hPa
Rain since
9am
mm
Dir  Spd
km/h
Gust
km/h
Spd
kts
Gust
kts
26/09:00pm 11.9 7.2 6.0 67 2.8 SE 20 26 11 14 1014.5 1013.1 0.0
26/08:30pm 12.7 7.2 5.8 63 3.3 SSE 24 33 13 18 1014.1 1012.7 0.0
26/08:00pm 13.6 8.2 6.2 61 3.6 SSE 24 30 13 16 1013.8 1012.4 0.0
26/07:30pm 15.2 9.8 6.2 55 4.4 SE 24 30 13 16 1013.5 1012.1 0.0
26/07:00pm 16.4 11.7 6.2 51 5.1 SE 20 28 11 15 1013.4 1012.0 0.0
26/06:30pm 17.1 12.0 6.0 48 5.5 SSE 22 30 12 16 1013.5 1012.1 0.0
26/06:00pm 17.6 13.1 6.2 47 5.7 SE 19 26 10 14 1013.3 1011.8 0.0
26/05:30pm 17.9 12.5 6.4 47 5.8 SSE 24 33 13 18 1012.9 1011.5 0.0
26/05:00pm 18.6 13.3 6.8 46 6.0 SE 24 37 13 20 1012.8 1011.4 0.0
26/04:30pm 18.6 13.6 6.4 45 6.2 S 22 32 12 17 1013.3 1011.8 0.0
26/04:00pm 18.4 14.1 7.2 48 5.8 SSE 19 30 10 16 1013.4 1012.0 0.0
26/03:30pm 18.4 14.3 7.8 50 5.5 SSE 19 32 10 17 1013.8 1012.4 0.0
26/03:00pm 17.2 11.4 6.4 49 5.4 S 26 35 14 19 1014.1 1012.7 0.0
26/02:30pm 17.2 10.9 7.3 52 5.1 S 30 39 16 21 1013.8 1012.4 0.0
26/02:00pm 16.6 10.5 6.4 51 5.1 S 28 39 15 21 1013.9 1012.5 0.0
26/01:30pm 16.1 10.8 6.8 54 4.7 S 24 33 13 18 1014.5 1013.1 0.0
26/01:00pm 14.9 10.2 6.0 55 4.4 S 20 32 11 17 1015.3 1014.0 0.0
26/12:30pm 14.1 8.9 5.7 57 4.1 S 22 32 12 17 1015.9 1014.5 0.0
26/12:00pm 13.8 8.4 6.2 60 3.7 S 24 33 13 18 1015.9 1014.5 0.0
26/11:30am 12.5 7.4 5.9 64 3.2 S 22 30 12 16 1016.1 1014.7 0.0
26/11:00am 12.3 7.7 5.5 63 3.2 S 19 26 10 14 1016.1 1014.7 0.0
26/10:30am 12.0 7.0 6.3 68 2.8 S 22 30 12 16 1015.9 1014.5 0.0
26/10:00am 11.4 6.2 5.7 68 2.7 S 22 30 12 16 1015.7 1014.3 0.0
26/09:30am 11.3 7.6 6.4 72 2.4 S 15 22 8 12 1015.3 1014.0 0.0
26/09:00am 10.8 8.5 7.5 80 1.6 SSW 9 13 5 7 1015.4 1014.1 1.0
26/08:30am 10.3 8.4 7.7 84 1.3 SSW 7 9 4 5 1015.2 1013.8 1.0
26/08:00am 10.0 7.2 7.1 82 1.4 SSW 11 15 6 8 1014.9 1013.5 1.0
26/07:30am 9.7 7.3 7.0 83 1.3 SSW 9 13 5 7 1014.3 1012.9 1.0
26/07:00am 9.6 6.8 7.0 84 1.3 SSW 11 15 6 8 1013.8 1012.4 1.0
26/06:30am 9.6 6.4 6.9 83 1.3 SSW 13 17 7 9 1013.4 1012.0 1.0
26/06:00am 9.8 6.5 6.2 78 1.7 S 13 19 7 10 1013.4 1012.0 1.0
26/05:30am 9.8 6.6 6.9 82 1.4 SSW 13 19 7 10 1013.4 1012.0 1.0
26/05:00am 9.6 6.6 7.7 88 0.9 S 13 17 7 9 1013.0 1011.6 1.0
26/04:30am 9.6 7.1 8.0 90 0.8 S 11 15 6 8 1012.8 1011.4 1.0
26/04:00am 9.4 6.5 8.2 92 0.6 S 13 17 7 9 1012.6 1011.2 1.0
26/03:30am 9.4 7.0 8.6 95 0.4 SSW 11 15 6 8 1012.8 1011.4 1.0
26/03:00am 9.4 7.3 8.3 93 0.5 S 9 11 5 6 1013.0 1011.6 1.0
26/02:30am 10.1 8.1 8.7 91 0.7 SSW 9 11 5 6 1013.1 1011.7 1.0
26/02:00am 10.3 8.4 8.9 91 0.7 SSW 9 13 5 7 1013.4 1012.0 1.0
26/01:53am 10.4 8.5 9.2 92 0.6 SSW 9 13 5 7 1013.4 1012.0 1.0
26/01:42am 10.4 8.9 9.2 92 0.6 SSW 7 11 4 6 1013.4 1012.0 1.0
26/01:30am 10.3 8.0 8.9 91 0.7 SSW 11 15 6 8 1013.4 1012.0 1.0
26/01:00am 10.7 8.4 9.1 90 0.8 SSW 11 17 6 9 1013.6 1012.2 1.0
26/12:30am 10.8 7.8 9.2 90 0.8 SSW 15 20 8 11 1013.7 1012.3 1.0
26/12:00am 10.9 8.0 9.5 91 0.7 S 15 22 8 12 1013.6 1012.2 1.0
 
Date/Time
EDT
Temp
°C
App
Temp
°C
Dew
Point
°C
Rel
Hum
%
Delta-T
°C
Wind Press
QNH
hPa
Press
MSL
hPa
Rain since
9am
mm
Dir  Spd
km/h
Gust
km/h
Spd
kts
Gust
kts
25/11:30pm 11.1 7.8 9.7 91 0.7 SSW 17 24 9 13 1013.6 1012.2 1.0
25/11:18pm 11.2 8.0 10.1 93 0.6 SSW 17 26 9 14 1013.6 1012.2 1.0
25/11:00pm 11.5 8.5 10.6 94 0.5 SSW 17 26 9 14 1013.5 1012.1 1.0
25/10:30pm 11.9 10.5 10.8 93 0.6 S 9 15 5 8 1013.5 1012.1 1.0
25/10:00pm 12.0 9.5 11.1 94 0.5 SSW 15 19 8 10 1013.4 1012.0 1.0
25/09:30pm 12.1 9.3 11.3 95 0.4 SSW 17 24 9 13 1013.1 1011.7 1.0
25/09:09pm 12.0 9.2 11.2 95 0.4 SW 17 24 9 13 1012.9 1011.5 1.0
25/09:00pm 12.0 8.6 11.2 95 0.4 SW 20 35 11 19 1012.8 1011.4 1.0
25/08:49pm 12.4 10.5 11.8 96 0.3 SW 13 20 7 11 1012.6 1011.2 0.8
25/08:38pm 12.2 10.2 11.6 96 0.3 SW 13 22 7 12 1012.5 1011.1 0.8
25/08:32pm 12.2 9.8 11.4 95 0.4 SW 15 22 8 12 1012.4 1011.0 0.8
25/08:30pm 12.3 9.9 11.5 95 0.4 SW 15 20 8 11 1012.4 1011.0 0.8
25/08:27pm 12.3 9.5 11.5 95 0.4 SW 17 24 9 13 1012.4 1011.0 0.8
25/08:02pm 13.1 10.9 12.2 94 0.5 SW 15 22 8 12 1012.2 1010.8 0.2
25/08:00pm 13.2 11.1 12.3 94 0.5 WSW 15 22 8 12 1012.2 1010.8 0.2
25/07:42pm 13.2 10.6 11.9 92 0.7 SW 17 24 9 13 1012.1 1010.7 0.2
25/07:41pm 13.2 10.6 11.9 92 0.7 SW 17 24 9 13 1012.1 1010.7 0.2
25/07:30pm 13.4 9.5 12.1 92 0.7 SW 24 37 13 20 1011.9 1010.5 0.0
25/07:26pm 13.6 9.3 12.0 90 0.9 WSW 26 39 14 21 1011.8 1010.4 0.0
25/07:00pm 16.2 12.5 10.1 67 3.3 WSW 20 32 11 17 1011.4 1010.0 0.0
25/06:30pm 17.0 12.1 10.1 64 3.7 WSW 26 41 14 22 1011.2 1009.7 0.0
25/06:00pm 17.6 13.4 9.8 60 4.2 WSW 22 37 12 20 1011.0 1009.5 0.0
25/05:30pm 18.2 12.8 8.2 52 5.2 WSW 26 41 14 22 1010.5 1009.1 0.0
25/05:00pm 20.0 14.2 8.0 46 6.3 WSW 28 37 15 20 1010.4 1009.0 0.0
25/04:30pm 19.4 14.0 7.8 47 6.1 W 26 37 14 20 1010.4 1009.0 0.0
25/04:00pm 20.3 13.5 7.7 44 6.6 W 33 46 18 25 1010.5 1009.1 0.0
25/03:30pm 20.6 14.0 7.9 44 6.7 WSW 32 44 17 24 1010.6 1009.2 0.0
25/03:08pm 20.3 13.6 7.3 43 6.8 W 32 50 17 27 1010.7 1009.3 0.0
25/03:00pm 20.1 14.3 8.1 46 6.4 WSW 28 39 15 21 1011.0 1009.5 0.0
25/02:45pm 19.6 13.7 7.7 46 6.2 W 28 48 15 26 1011.0 1009.5 0.0
25/02:30pm 20.3 14.4 7.7 44 6.6 W 28 41 15 22 1011.2 1009.7 0.0
25/02:00pm 19.1 13.1 6.9 45 6.3 W 28 43 15 23 1011.6 1010.2 0.0
25/01:34pm 19.0 12.9 6.5 44 6.4 W 28 46 15 25 1011.8 1010.4 0.0
25/01:30pm 18.5 12.4 6.7 46 6.0 WSW 28 41 15 22 1012.0 1010.6 0.0
25/01:00pm 17.8 11.8 7.2 50 5.4 W 28 39 15 21 1012.2 1010.8 0.0
25/12:30pm 17.3 11.3 7.1 51 5.2 W 28 43 15 23 1012.7 1011.3 0.0
25/12:00pm 16.5 12.1 7.4 55 4.7 WSW 20 32 11 17 1013.0 1011.6 0.0
25/11:30am 15.5 10.2 7.0 57 4.3 WSW 24 33 13 18 1013.5 1012.1 0.0
25/11:00am 13.9 9.0 6.7 62 3.6 WSW 22 30 12 16 1013.5 1012.1 0.0
25/10:30am 13.0 8.1 6.8 66 3.1 W 22 30 12 16 1013.6 1012.2 0.0
25/10:00am 12.8 8.8 6.8 67 3.0 W 17 22 9 12 1013.7 1012.3 0.0
25/09:30am 10.7 9.0 8.3 85 1.2 W 7 11 4 6 1013.5 1012.1 0.0
25/09:00am 8.6 8.1 7.7 94 0.4 CALM 0 0 0 0 1013.4 1012.0 0.0
25/08:30am 7.2 6.4 6.5 95 0.3 CALM 0 0 0 0 1013.3 1011.8 0.0
25/08:00am 5.8 4.7 4.9 94 0.4 CALM 0 0 0 0 1013.0 1011.6 0.0
25/07:30am 5.7 3.4 5.0 95 0.3 SE 6 7 3 4 1013.1 1011.7 0.0
25/07:00am 5.5 3.2 4.9 96 0.3 ESE 6 7 3 4 1012.9 1011.5 0.0
25/06:30am 5.0 2.4 4.1 94 0.4 ESE 7 9 4 5 1013.0 1011.6 0.0
25/06:00am 5.8 3.3 4.9 94 0.4 SSE 7 7 4 4 1013.0 1011.6 0.0
25/05:30am 6.6 4.3 5.7 94 0.4 S 7 9 4 5 1013.4 1012.0 0.0
25/05:00am 7.1 4.9 6.0 93 0.5 SSW 7 9 4 5 1013.3 1011.8 0.0
25/04:30am 7.1 4.5 6.0 93 0.5 S 9 11 5 6 1013.4 1012.0 0.0
25/04:00am 7.4 4.5 6.5 94 0.4 S 11 13 6 7 1013.6 1012.2 0.0
25/03:30am 7.3 4.0 6.2 93 0.5 S 13 17 7 9 1014.0 1012.6 0.0
25/03:00am 7.8 3.8 6.7 93 0.5 S 17 20 9 11 1014.3 1012.9 0.0
25/02:30am 7.3 3.6 6.1 92 0.6 S 15 17 8 9 1014.4 1013.0 0.0
25/02:00am 7.5 4.2 6.3 92 0.6 S 13 17 7 9 1014.7 1013.3 0.0
25/01:30am 8.3 4.7 6.8 90 0.7 S 15 17 8 9 1015.2 1013.8 0.0
25/01:00am 8.6 4.7 6.9 89 0.8 S 17 20 9 11 1015.3 1014.0 0.0
25/12:30am 9.4 5.9 7.2 86 1.1 S 15 17 8 9 1015.3 1014.0 0.0
25/12:00am 9.9 6.4 7.3 84 1.3 SE 15 19 8 10 1015.5 1014.2 0.0
 
Date/Time
EDT
Temp
°C
App
Temp
°C
Dew
Point
°C
Rel
Hum
%
Delta-T
°C
Wind Press
QNH
hPa
Press
MSL
hPa
Rain since
9am
mm
Dir  Spd
km/h
Gust
km/h
Spd
kts
Gust
kts
24/11:30pm 10.6 7.2 7.7 82 1.4 SSE 15 20 8 11 1016.0 1014.6 0.0
24/11:00pm 11.0 7.1 7.3 78 1.8 ESE 17 24 9 13 1016.1 1014.7 0.0
24/10:30pm 11.1 7.2 7.0 76 2.0 SE 17 20 9 11 1016.4 1015.0 0.0
24/10:00pm 12.0 8.1 7.1 72 2.4 ESE 17 22 9 12 1016.4 1015.0 0.0
24/09:30pm 12.7 8.3 7.2 69 2.7 SE 20 28 11 15 1016.3 1014.9 0.0
24/09:00pm 13.3 8.8 7.1 66 3.1 SE 20 30 11 16 1016.2 1014.8 0.0
24/08:30pm 14.1 10.1 6.7 61 3.7 SE 17 20 9 11 1016.1 1014.7 0.0
24/08:00pm 15.2 11.2 6.5 56 4.3 SE 17 22 9 12 1016.1 1014.7 0.0
24/07:30pm 16.7 12.1 6.5 51 5.1 SSE 20 28 11 15 1016.0 1014.6 0.0
24/07:00pm 17.5 13.3 5.8 46 5.8 SSE 17 22 9 12 1015.9 1014.5 0.0
24/06:30pm 17.8 14.0 6.0 46 5.9 S 15 20 8 11 1016.0 1014.6 0.0
24/06:00pm 18.3 13.7 6.5 46 6.0 SSE 20 26 11 14 1015.9 1014.5 0.0
24/05:30pm 19.3 15.0 7.7 47 6.1 S 20 28 11 15 1016.1 1014.7 0.0
24/05:00pm 17.6 12.8 5.5 45 6.0 SSE 20 26 11 14 1016.3 1014.9 0.0
24/04:30pm 18.5 13.9 5.4 42 6.5 SE 19 35 10 19 1016.5 1015.1 0.0
24/04:00pm 18.3 14.4 5.2 42 6.5 SE 15 28 8 15 1016.8 1015.4 0.0
24/03:30pm 18.3 14.4 5.5 43 6.4 ESE 15 24 8 13 1017.4 1016.1 0.0
24/03:00pm 17.9 13.7 5.8 45 6.0 SE 17 22 9 12 1017.7 1016.4 0.0
24/02:30pm 16.9 12.3 5.5 47 5.6 SSE 19 32 10 17 1018.3 1016.9 0.0
24/02:00pm 17.4 14.0 7.5 52 5.1 SE 15 22 8 12 1018.7 1017.3 0.0
24/01:30pm 17.2 13.4 7.5 53 5.0 SSE 17 28 9 15 1018.9 1017.5 0.0
24/01:00pm 16.8 12.6 7.4 54 4.8 SSE 19 28 10 15 1019.4 1018.1 0.0
24/12:30pm 15.1 10.5 6.4 56 4.3 SSE 20 32 11 17 1020.0 1018.7 0.0
24/12:00pm 14.9 10.7 8.4 65 3.3 SE 20 30 11 16 1020.3 1019.0 0.0
24/11:30am 14.9 10.0 8.4 65 3.4 SE 24 32 13 17 1020.7 1019.3 0.0
24/11:00am 13.4 9.0 7.6 68 2.9 SSE 20 28 11 15 1021.0 1019.6 0.0
24/10:30am 12.4 9.1 7.9 74 2.3 SE 15 22 8 12 1021.0 1019.6 0.0
24/10:00am 12.2 8.5 8.1 76 2.1 SSE 17 20 9 11 1020.9 1019.5 0.0
24/09:30am 11.2 7.8 7.7 79 1.7 S 15 20 8 11 1021.1 1019.7 0.0
24/09:00am 9.9 6.4 7.2 83 1.3 S 15 20 8 11 1020.8 1019.4 0.0
24/08:30am 8.7 5.2 7.0 89 0.8 S 15 19 8 10 1020.2 1018.9 0.0
24/08:00am 7.9 5.0 6.7 92 0.6 S 11 15 6 8 1020.0 1018.7 0.0
24/07:30am 7.5 4.5 6.1 91 0.7 S 11 19 6 10 1019.6 1018.3 0.0
24/07:00am 6.8 4.0 5.3 90 0.7 S 9 11 5 6 1019.3 1018.0 0.0
24/06:30am 7.0 4.0 5.8 92 0.6 SSE 11 15 6 8 1019.2 1017.8 0.0
24/06:00am 6.1 3.2 4.7 91 0.6 S 9 13 5 7 1019.1 1017.7 0.0
24/05:30am 6.3 3.4 4.8 90 0.7 S 9 13 5 7 1019.1 1017.7 0.0
24/05:00am 6.6 3.4 5.2 91 0.6 S 11 15 6 8 1019.3 1018.0 0.0
24/04:30am 6.4 2.8 4.9 90 0.7 S 13 15 7 8 1019.4 1018.1 0.0
24/04:00am 6.8 3.3 5.3 90 0.7 S 13 15 7 8 1019.5 1018.2 0.0
24/03:30am 6.5 3.6 4.8 89 0.8 S 9 13 5 7 1019.8 1018.5 0.0
24/03:00am 5.5 2.8 3.8 89 0.7 SSE 7 9 4 5 1019.9 1018.6 0.0
24/02:30am 6.0 2.8 3.3 83 1.2 S 9 13 5 7 1020.1 1018.8 0.0
24/02:00am 6.5 3.5 4.3 86 1.0 S 9 13 5 7 1020.3 1019.0 0.0
24/01:30am 7.3 4.4 4.4 82 1.3 S 9 11 5 6 1020.6 1019.2 0.0
24/01:00am 8.0 4.4 4.9 81 1.4 S 13 15 7 8 1020.8 1019.4 0.0
24/12:30am 8.0 4.4 4.8 80 1.4 S 13 15 7 8 1020.8 1019.4 0.0
24/12:00am 8.6 4.6 5.0 78 1.6 SSE 15 19 8 10 1020.9 1019.5 0.0
 
Date/Time
EDT
Temp
°C
App
Temp
°C
Dew
Point
°C
Rel
Hum
%
Delta-T
°C
Wind Press
QNH
hPa
Press
MSL
hPa
Rain since
9am
mm
Dir  Spd
km/h
Gust
km/h
Spd
kts
Gust
kts
23/11:30pm 9.7 5.0 5.1 73 2.1 SSE 19 24 10 13 1021.1 1019.7 0.0
23/11:00pm 10.8 5.9 5.1 68 2.7 SSE 20 30 11 16 1021.1 1019.7 0.0
23/10:30pm 11.4 6.2 5.7 68 2.7 SSE 22 30 12 16 1021.1 1019.7 0.0
23/10:00pm 11.3 6.6 6.2 71 2.4 SSE 20 28 11 15 1021.0 1019.6 0.0
23/09:30pm 12.1 7.1 6.4 68 2.8 SSE 22 30 12 16 1020.7 1019.3 0.0

Other formats

Comma delimited format used in spreadsheet applications
http://www.bom.gov.au/fwo/IDV60801/IDV60801.94852.axf

JavaScript Object Notation format (JSON) in row-major order
http://www.bom.gov.au/fwo/IDV60801/IDV60801.94852.json

Data quality

Most of these data are generated automatically and are frequently updated. Quality checks on data are not normally performed. It is possible for incorrect values to appear. Refer to information at About Latest Weather Observations and please check the disclaimer before using these data.